Time;durP1;ratioP1;P1;durP2;ratioP2;P2;SDS_P1;SDS_P2;PMS_P1;PMS_P2;Temp;Humidity;BMP_temperature;BMP_pressure;BME280_temperature;BME280_humidity;BME280_pressure;Samples;Min_cycle;Max_cycle;Signal;HPM_P1;HPM_P2
2021/04/08 00:00:10;;;;;;;24.00;15.43;;;9.70;61.40;;;;;;4907384;28;20120;-88
2021/04/08 00:02:45;;;;;;;23.25;13.50;;;9.70;61.40;;;;;;4910230;28;20055;-90
2021/04/08 00:05:13;;;;;;;21.20;14.10;;;9.70;61.30;;;;;;4924592;28;20046;-89
2021/04/08 00:07:40;;;;;;;19.38;13.07;;;9.70;61.30;;;;;;4926023;28;20078;-87
2021/04/08 00:10:07;;;;;;;18.63;12.23;;;9.80;61.20;;;;;;4923104;28;20092;-88
2021/04/08 00:12:34;;;;;;;11.68;8.77;;;9.80;61.20;;;;;;4912877;28;20034;-89
2021/04/08 00:15:00;;;;;;;21.30;12.93;;;9.90;61.10;;;;;;4929150;28;20038;-88
2021/04/08 00:17:26;;;;;;;22.13;13.68;;;9.90;61.10;;;;;;4922387;28;20609;-89
2021/04/08 00:19:52;;;;;;;14.50;9.75;;;9.90;61.00;;;;;;4905681;28;20105;-90
2021/04/08 00:22:19;;;;;;;20.15;13.80;;;9.90;60.90;;;;;;4920170;28;20537;-90
2021/04/08 00:24:45;;;;;;;18.33;11.85;;;9.90;60.90;;;;;;4905826;28;20030;-90
2021/04/08 00:27:11;;;;;;;8.95;6.82;;;9.90;60.90;;;;;;4903291;28;20047;-91
2021/04/08 00:29:38;;;;;;;10.50;8.05;;;9.90;60.80;;;;;;4919443;28;20038;-89
2021/04/08 00:32:04;;;;;;;13.13;8.95;;;9.80;60.90;;;;;;4935194;28;20114;-89
2021/04/08 00:34:31;;;;;;;18.23;12.85;;;9.80;61.00;;;;;;4903175;28;20518;-88
2021/04/08 00:36:57;;;;;;;9.63;7.45;;;9.80;62.30;;;;;;4918444;28;20074;-89
2021/04/08 00:39:23;;;;;;;14.20;7.63;;;9.80;61.00;;;;;;4894600;28;20150;-89
2021/04/08 00:41:50;;;;;;;10.10;8.05;;;9.80;60.90;;;;;;4896780;28;20038;-88
2021/04/08 00:44:16;;;;;;;10.40;7.60;;;9.80;60.90;;;;;;4933212;28;20039;-89
2021/04/08 00:46:42;;;;;;;13.93;9.43;;;9.70;61.20;;;;;;4925484;28;20042;-89
2021/04/08 00:49:09;;;;;;;19.63;12.23;;;9.60;61.60;;;;;;4902625;28;20034;-87
2021/04/08 00:51:35;;;;;;;13.05;7.22;;;9.50;61.80;;;;;;4902084;28;20118;-88
2021/04/08 00:54:01;;;;;;;18.58;12.13;;;9.50;61.90;;;;;;4916813;28;20053;-89
2021/04/08 00:56:28;;;;;;;18.77;12.25;;;9.60;61.80;;;;;;4919477;28;20069;-90
2021/04/08 00:58:54;;;;;;;15.68;9.38;;;9.60;61.60;;;;;;4904355;28;20046;-91
2021/04/08 01:01:20;;;;;;;11.57;8.52;;;9.70;61.40;;;;;;4917761;28;20045;-90
2021/04/08 01:03:47;;;;;;;19.60;13.45;;;9.80;61.20;;;;;;4902454;28;20039;-89
2021/04/08 01:06:13;;;;;;;21.17;13.15;;;9.80;61.10;;;;;;4901502;28;20043;-89
2021/04/08 01:08:39;;;;;;;8.68;6.45;;;9.90;61.40;;;;;;4933123;28;20041;-90
2021/04/08 01:11:06;;;;;;;10.05;6.90;;;9.90;61.40;;;;;;4905390;28;20046;-88
2021/04/08 01:13:34;;;;;;;9.05;6.65;;;9.90;61.40;;;;;;4914909;28;20141;-87
2021/04/08 01:16:04;;;;;;;5.03;4.53;;;9.80;61.60;;;;;;4918978;28;20096;-90
2021/04/08 01:19:41;;;;;;;10.95;7.47;;;9.80;62.10;;;;;;4918151;28;20121;-90
2021/04/08 01:22:44;;;;;;;22.20;13.80;;;9.60;62.70;;;;;;4873427;28;20257;-88
2021/04/08 01:25:47;;;;;;;13.05;8.07;;;9.60;63.20;;;;;;4942076;28;20051;-89
2021/04/08 01:28:35;;;;;;;17.20;11.35;;;9.60;63.50;;;;;;4938307;28;20039;-89
2021/04/08 01:31:09;;;;;;;16.35;10.90;;;9.60;63.30;;;;;;4920167;28;20602;-87
2021/04/08 01:33:42;;;;;;;16.50;10.20;;;9.60;63.20;;;;;;4887771;28;20057;-90
2021/04/08 01:36:18;;;;;;;20.60;12.10;;;9.70;63.10;;;;;;4927623;28;20113;-89
2021/04/08 01:38:49;;;;;;;10.33;7.77;;;9.70;63.10;;;;;;4941381;28;20101;-88
2021/04/08 01:41:17;;;;;;;15.57;9.30;;;9.70;62.90;;;;;;4954996;28;20034;-87
2021/04/08 01:43:45;;;;;;;11.18;7.35;;;9.70;62.80;;;;;;4933829;28;20035;-89
2021/04/08 01:46:14;;;;;;;11.57;8.52;;;9.70;62.70;;;;;;4912471;28;20425;-89
2021/04/08 01:48:43;;;;;;;11.60;8.63;;;9.80;62.60;;;;;;4903418;28;20121;-88
2021/04/08 01:51:09;;;;;;;13.00;9.52;;;9.90;62.20;;;;;;4900902;28;20038;-88
2021/04/08 01:53:43;;;;;;;17.45;11.52;;;9.90;62.00;;;;;;4903083;28;20042;-88
2021/04/08 01:56:09;;;;;;;10.18;7.05;;;10.00;61.80;;;;;;4906622;28;20046;-87
2021/04/08 01:58:35;;;;;;;15.32;11.25;;;10.00;61.00;;;;;;4921311;28;20042;-89
2021/04/08 02:01:02;;;;;;;18.08;11.18;;;10.00;61.20;;;;;;4907207;28;20054;-87
2021/04/08 02:03:28;;;;;;;19.00;11.65;;;10.10;61.40;;;;;;4906106;28;20062;-87
2021/04/08 02:05:55;;;;;;;16.85;10.02;;;10.20;61.30;;;;;;4906435;28;20042;-86
2021/04/08 02:08:21;;;;;;;15.35;11.18;;;10.30;60.80;;;;;;4908940;28;20048;-87
2021/04/08 02:10:48;;;;;;;15.55;9.07;;;10.40;60.70;;;;;;4915319;28;20042;-86
2021/04/08 02:13:15;;;;;;;6.00;5.40;;;10.50;60.30;;;;;;4924419;28;20035;-91
2021/04/08 02:15:43;;;;;;;16.33;11.00;;;10.50;60.10;;;;;;4921096;28;20050;-90
2021/04/08 02:18:14;;;;;;;14.52;10.55;;;10.60;60.00;;;;;;4912303;28;20039;-87
2021/04/08 02:20:41;;;;;;;16.52;11.52;;;10.60;59.90;;;;;;4932856;28;20046;-89
2021/04/08 02:23:07;;;;;;;19.10;11.95;;;10.60;59.80;;;;;;4907880;28;20038;-89
2021/04/08 02:25:37;;;;;;;17.85;14.15;;;10.70;60.00;;;;;;4917350;28;20046;-85
2021/04/08 02:28:09;;;;;;;20.20;13.75;;;10.70;60.70;;;;;;4918881;28;20046;-89
2021/04/08 02:30:46;;;;;;;20.55;13.77;;;10.60;61.00;;;;;;4901104;28;20050;-89
2021/04/08 02:33:27;;;;;;;17.75;13.27;;;10.60;61.40;;;;;;4920055;28;20049;-88
2021/04/08 02:35:54;;;;;;;19.65;14.25;;;10.50;61.70;;;;;;4916451;28;20058;-89
2021/04/08 02:38:26;;;;;;;19.70;14.15;;;10.50;61.80;;;;;;4902549;28;20034;-88
2021/04/08 02:40:52;;;;;;;22.88;14.35;;;10.50;61.90;;;;;;4907757;28;20046;-87
2021/04/08 02:43:19;;;;;;;19.85;13.30;;;10.50;62.00;;;;;;4901025;28;20129;-89
2021/04/08 02:45:45;;;;;;;13.65;9.85;;;10.60;61.90;;;;;;4936549;28;20035;-89
2021/04/08 02:48:19;;;;;;;11.40;9.10;;;10.50;61.40;;;;;;4937425;28;20064;-87
2021/04/08 02:59:14;;;;;;;8.25;6.53;;;10.60;60.70;;;;;;4929991;28;20125;-86
2021/04/08 03:02:09;;;;;;;10.57;7.07;;;10.60;59.70;;;;;;4898269;29;20051;-86
2021/04/08 03:08:43;;;;;;;7.75;6.03;;;10.80;58.70;;;;;;4907069;29;20056;-87
2021/04/08 03:11:09;;;;;;;;;;;10.90;58.70;;;;;;4884009;29;20055;-85
2021/04/08 03:13:38;;;;;;;8.35;6.28;;;10.90;58.00;;;;;;4899862;29;19958;-88
2021/04/08 03:19:36;;;;;;;8.85;6.97;;;11.10;57.60;;;;;;4839624;29;20051;-88
2021/04/08 03:51:04;;;;;;;9.48;8.00;;;11.30;58.80;;;;;;4959993;28;20137;-93
2021/04/08 03:53:32;;;;;;;13.05;10.15;;;11.20;58.30;;;;;;5116804;23;20305;-94
2021/04/08 03:59:15;;;;;;;10.60;7.78;;;11.20;58.10;;;;;;5503486;23;20052;-95
2021/04/08 04:01:48;;;;;;;14.13;8.57;;;11.30;57.70;;;;;;4974265;28;20045;-95
2021/04/08 04:09:26;;;;;;;10.48;8.18;;;11.50;57.00;;;;;;5453776;23;20403;-91
2021/04/08 04:11:53;;;;;;;10.63;8.65;;;11.50;56.90;;;;;;5171934;23;20042;-92
2021/04/08 04:14:28;;;;;;;13.15;8.80;;;11.50;56.70;;;;;;5049138;23;20129;-94
2021/04/08 04:16:55;;;;;;;12.23;8.43;;;11.50;56.40;;;;;;4949134;28;20102;-92
2021/04/08 04:19:24;;;;;;;;;;;11.50;56.10;;;;;;4946533;28;20083;-94
2021/04/08 04:21:53;;;;;;;10.88;7.80;;;11.50;56.20;;;;;;4947950;29;19926;-93
2021/04/08 04:24:20;;;;;;;9.30;7.13;;;11.50;56.20;;;;;;4955445;28;20101;-93
2021/04/08 04:26:48;;;;;;;11.15;9.70;;;11.50;56.20;;;;;;4955455;28;20042;-95
2021/04/08 04:29:16;;;;;;;8.30;6.97;;;11.50;56.20;;;;;;4942521;29;20046;-93
2021/04/08 04:31:43;;;;;;;9.38;7.53;;;11.50;56.30;;;;;;4955646;28;20042;-94
2021/04/08 04:34:10;;;;;;;11.32;8.40;;;11.50;56.10;;;;;;4942133;28;20038;-94
2021/04/08 04:36:36;;;;;;;6.35;5.47;;;11.50;56.20;;;;;;5004643;23;20049;-88
2021/04/08 04:39:08;;;;;;;14.38;10.02;;;11.50;56.00;;;;;;4938693;28;20081;-90
2021/04/08 04:41:36;;;;;;;8.88;5.68;;;11.50;55.90;;;;;;4929636;28;20038;-93
2021/04/08 04:44:03;;;;;;;11.20;6.32;;;11.60;55.80;;;;;;4943415;28;20041;-94
2021/04/08 04:46:37;;;;;;;;;;;11.60;55.60;;;;;;4974855;23;20677;-94
2021/04/08 04:52:23;;;;;;;12.00;8.80;;;11.70;55.40;;;;;;4703667;23;20052;-96
2021/04/08 04:54:55;;;;;;;12.88;7.78;;;11.80;55.40;;;;;;4952280;28;20037;-95
2021/04/08 04:57:23;;;;;;;7.00;5.75;;;12.00;55.30;;;;;;5282301;23;20528;-92
2021/04/08 04:59:51;;;;;;;10.10;6.70;;;12.20;54.50;;;;;;4936896;28;20061;-94
2021/04/08 05:02:19;;;;;;;12.85;8.00;;;12.20;53.80;;;;;;5042049;23;20049;-94
2021/04/08 05:05:45;;;;;;;10.18;8.38;;;12.20;53.60;;;;;;5202074;23;20031;-96
2021/04/08 05:08:37;;;;;;;12.02;9.07;;;12.10;53.70;;;;;;5300169;23;20038;-91
2021/04/08 05:11:07;;;;;;;9.75;7.43;;;12.00;53.90;;;;;;4911497;29;20077;-93
2021/04/08 05:13:49;;;;;;;8.63;6.25;;;11.90;53.90;;;;;;5019866;23;20155;-94
2021/04/08 05:16:16;;;;;;;10.65;8.40;;;11.90;54.10;;;;;;5324345;23;20041;-95
2021/04/08 05:19:26;;;;;;;9.15;7.78;;;12.00;54.10;;;;;;4924940;28;20042;-94
2021/04/08 05:28:06;;;;;;;9.23;6.78;;;11.90;53.50;;;;;;4998892;23;20053;-90
2021/04/08 05:30:33;;;;;;;10.13;7.95;;;12.00;53.60;;;;;;5016624;23;20081;-93
2021/04/08 05:33:01;;;;;;;5.50;4.95;;;11.90;53.70;;;;;;5396116;23;20379;-92
2021/04/08 05:35:28;;;;;;;8.40;7.15;;;12.10;53.70;;;;;;5027451;23;20065;-94
2021/04/08 05:40:43;;;;;;;9.65;7.78;;;12.80;53.90;;;;;;4956138;28;20088;-96
2021/04/08 05:43:11;;;;;;;;;;;14.10;52.10;;;;;;4894931;28;20050;-96
2021/04/08 05:45:47;;;;;;;7.20;6.03;;;15.40;48.70;;;;;;4924164;28;19945;-95
2021/04/08 05:48:17;;;;;;;7.10;6.40;;;16.60;45.70;;;;;;4930652;28;20030;-93
2021/04/08 05:50:47;;;;;;;4.95;4.55;;;17.70;42.20;;;;;;5096272;23;20041;-94
2021/04/08 05:53:14;;;;;;;7.35;6.60;;;18.70;40.00;;;;;;4959736;28;20037;-93
2021/04/08 05:55:40;;;;;;;;;;;19.60;38.10;;;;;;4936024;28;20133;-93
2021/04/08 05:58:09;;;;;;;9.23;7.05;;;20.20;35.30;;;;;;4946856;28;20420;-91
2021/04/08 06:00:35;;;;;;;7.88;6.43;;;20.80;34.00;;;;;;4958826;28;20057;-94
2021/04/08 06:03:02;;;;;;;8.25;6.38;;;21.40;32.60;;;;;;4943521;28;20041;-93
2021/04/08 06:08:11;;;;;;;4.40;4.00;;;22.40;31.50;;;;;;5290158;23;20042;-96
2021/04/08 06:10:41;;;;;;;7.55;6.85;;;22.80;28.50;;;;;;4928243;28;20401;-95
2021/04/08 06:13:13;;;;;;;4.40;4.00;;;22.90;28.60;;;;;;4910280;28;20066;-96
2021/04/08 06:18:23;;;;;;;12.60;6.57;;;22.90;27.90;;;;;;4965920;28;20093;-94
2021/04/08 06:20:55;;;;;;;4.78;4.03;;;23.20;27.40;;;;;;5317165;23;20050;-94
2021/04/08 06:23:22;;;;;;;6.25;5.57;;;23.30;27.00;;;;;;5221450;23;20121;-94
2021/04/08 06:28:52;;;;;;;5.35;4.18;;;23.10;26.90;;;;;;5513236;23;20132;-92
2021/04/08 06:36:48;;;;;;;5.68;4.95;;;22.40;28.30;;;;;;4979343;28;20622;-95
2021/04/08 06:39:15;;;;;;;22.20;8.40;;;22.80;28.10;;;;;;4943434;28;20053;-93
2021/04/08 06:41:41;;;;;;;4.57;3.22;;;23.20;27.20;;;;;;4907850;28;20034;-94
2021/04/08 06:44:08;;;;;;;;;;;23.60;26.90;;;;;;4923986;28;20038;-93
2021/04/08 06:46:44;;;;;;;5.57;5.07;;;23.60;26.20;;;;;;4939915;28;20000;-95
2021/04/08 06:49:26;;;;;;;10.57;6.95;;;23.80;26.70;;;;;;4929043;28;20038;-95
2021/04/08 06:52:01;;;;;;;4.20;3.80;;;23.80;26.40;;;;;;4946410;28;20042;-96
2021/04/08 06:54:29;;;;;;;6.20;5.45;;;23.80;26.00;;;;;;4930848;28;20080;-96
2021/04/08 06:57:19;;;;;;;5.55;4.50;;;23.40;25.90;;;;;;4952843;28;20053;-95
2021/04/08 07:09:00;;;;;;;9.73;6.50;;;20.60;30.00;;;;;;5001755;28;20064;-93
2021/04/08 07:11:27;;;;;;;5.65;4.93;;;20.00;30.90;;;;;;4919876;28;20535;-93
2021/04/08 07:13:54;;;;;;;5.90;4.00;;;19.70;31.90;;;;;;4939721;28;20029;-93
2021/04/08 07:16:20;;;;;;;6.40;5.70;;;19.50;32.40;;;;;;4970181;28;20060;-93
2021/04/08 07:18:48;;;;;;;6.28;5.63;;;19.00;33.30;;;;;;4936001;28;20159;-91
2021/04/08 07:21:15;;;;;;;8.70;5.68;;;19.00;34.40;;;;;;4936943;28;20107;-95
2021/04/08 07:24:16;;;;;;;;;;;19.90;34.50;;;;;;4966683;28;20095;-95
2021/04/08 07:27:05;;;;;;;8.02;6.47;;;21.20;32.20;;;;;;4981085;28;20027;-93
2021/04/08 07:29:41;;;;;;;9.40;6.10;;;22.40;28.20;;;;;;4941579;28;20045;-96
2021/04/08 07:32:32;;;;;;;9.82;4.57;;;21.90;27.60;;;;;;4972736;28;20041;-93
2021/04/08 07:35:14;;;;;;;5.25;4.07;;;20.90;29.00;;;;;;4954144;28;20037;-92
2021/04/08 07:37:44;;;;;;;10.75;6.28;;;20.10;30.40;;;;;;4983657;28;20046;-95
2021/04/08 07:40:21;;;;;;;7.28;5.57;;;19.40;32.00;;;;;;4936589;28;20058;-94
2021/04/08 07:43:18;;;;;;;7.00;5.15;;;19.20;33.00;;;;;;4957464;28;20065;-96
2021/04/08 07:45:51;;;;;;;6.80;5.90;;;19.00;33.50;;;;;;5253760;23;20046;-95
2021/04/08 07:48:20;;;;;;;6.70;5.97;;;19.30;33.90;;;;;;4958333;28;20029;-94
2021/04/08 07:50:56;;;;;;;6.90;4.65;;;19.50;33.10;;;;;;4940213;28;20025;-92
2021/04/08 07:53:22;;;;;;;7.53;5.75;;;20.30;32.60;;;;;;4955124;28;20037;-93
2021/04/08 07:55:49;;;;;;;10.20;6.13;;;21.50;31.30;;;;;;4948559;28;20029;-92
2021/04/08 07:58:19;;;;;;;6.53;4.43;;;22.90;28.60;;;;;;4954301;28;20056;-96
2021/04/08 08:00:51;;;;;;;5.55;3.75;;;24.00;26.20;;;;;;5112089;23;20058;-95
2021/04/08 08:03:25;;;;;;;10.77;4.50;;;24.70;24.90;;;;;;4919354;28;20138;-96
2021/04/08 08:05:58;;;;;;;9.18;4.53;;;24.90;24.20;;;;;;4966245;28;20045;-94
2021/04/08 08:08:44;;;;;;;7.90;5.72;;;25.20;24.50;;;;;;4950175;28;20077;-96
2021/04/08 08:11:14;;;;;;;5.82;3.78;;;25.80;23.30;;;;;;4932520;28;20042;-93
2021/04/08 08:13:52;;;;;;;5.15;4.75;;;25.80;22.80;;;;;;4931721;28;20030;-95
2021/04/08 08:16:20;;;;;;;7.63;5.93;;;25.60;22.90;;;;;;4938006;28;20149;-95
2021/04/08 08:18:48;;;;;;;6.82;5.70;;;25.50;23.20;;;;;;4940516;28;20073;-92
2021/04/08 08:21:17;;;;;;;7.40;5.70;;;25.30;23.40;;;;;;4919502;28;20042;-95
2021/04/08 08:23:52;;;;;;;4.68;3.72;;;25.30;23.20;;;;;;4931145;28;20037;-96
2021/04/08 08:26:44;;;;;;;5.70;4.28;;;25.10;23.40;;;;;;4916682;28;20046;-94
2021/04/08 08:29:10;;;;;;;5.78;5.28;;;24.60;23.80;;;;;;4973249;28;20023;-96
2021/04/08 08:31:47;;;;;;;;;;;24.00;24.60;;;;;;4967858;28;20069;-96
2021/04/08 08:34:20;;;;;;;9.73;7.05;;;23.60;25.10;;;;;;4931915;28;20015;-96
2021/04/08 08:36:56;;;;;;;18.73;6.93;;;23.60;26.20;;;;;;4943504;28;20046;-96
2021/04/08 08:39:32;;;;;;;7.90;5.90;;;24.20;25.70;;;;;;4931421;28;20072;-94
2021/04/08 08:42:00;;;;;;;5.20;4.32;;;24.50;24.70;;;;;;4950376;28;20065;-92
2021/04/08 08:44:27;;;;;;;5.55;3.80;;;24.00;24.40;;;;;;4925940;28;20034;-94
2021/04/08 08:47:01;;;;;;;6.72;4.57;;;23.00;25.60;;;;;;4964504;28;20056;-94
2021/04/08 08:49:39;;;;;;;5.22;3.97;;;22.00;27.30;;;;;;4964252;28;20038;-93
2021/04/08 08:52:19;;;;;;;3.70;3.40;;;21.10;28.80;;;;;;4938102;28;20042;-95
2021/04/08 08:54:49;;;;;;;5.00;4.60;;;20.60;30.00;;;;;;4940839;28;20037;-95
2021/04/08 08:57:16;;;;;;;10.38;6.10;;;20.80;30.40;;;;;;5063559;23;21153;-92
2021/04/08 08:59:51;;;;;;;10.82;5.68;;;21.60;29.90;;;;;;4960537;28;20046;-95
2021/04/08 09:02:18;;;;;;;19.33;7.28;;;22.90;28.30;;;;;;4958904;28;20049;-96
2021/04/08 09:04:48;;;;;;;4.22;3.78;;;24.10;26.70;;;;;;5165188;23;20046;-96
2021/04/08 09:09:50;;;;;;;7.18;4.75;;;25.90;23.20;;;;;;5097610;23;20113;-93
2021/04/08 09:12:18;;;;;;;9.70;7.03;;;26.00;23.20;;;;;;5089114;23;20042;-94
2021/04/08 09:14:47;;;;;;;4.20;3.70;;;26.00;23.10;;;;;;4954839;23;20041;-94
2021/04/08 09:17:52;;;;;;;5.55;4.00;;;26.30;23.50;;;;;;5253729;23;20089;31
2021/04/08 09:20:34;;;;;;;11.55;6.07;;;26.60;22.50;;;;;;5125279;23;20475;31
2021/04/08 09:23:06;;;;;;;13.10;6.68;;;26.60;22.80;;;;;;5051796;23;20042;-95
2021/04/08 09:42:58;;;;;;;6.53;3.97;;;26.80;22.80;;;;;;5912377;23;20209;-93
2021/04/08 09:45:26;;;;;;;5.35;4.88;;;27.00;22.80;;;;;;4952349;28;20044;-96
2021/04/08 09:59:18;;;;;;;10.57;6.40;;;27.50;22.50;;;;;;5179825;23;20089;-96
2021/04/08 10:01:46;;;;;;;4.22;3.88;;;27.20;22.50;;;;;;4912480;28;20050;-94
2021/04/08 10:04:23;;;;;;;7.07;5.97;;;26.40;22.60;;;;;;4912394;28;20097;-94
2021/04/08 10:07:06;;;;;;;8.15;4.93;;;25.40;25.10;;;;;;4921074;28;20114;-93
2021/04/08 10:09:33;;;;;;;5.78;5.10;;;24.60;25.20;;;;;;4905077;29;20184;-94
2021/04/08 10:12:00;;;;;;;6.35;4.43;;;24.10;26.60;;;;;;4885573;29;20046;-93
2021/04/08 10:14:29;;;;;;;9.65;6.57;;;23.80;27.30;;;;;;4906091;29;20035;-91
2021/04/08 10:17:06;;;;;;;10.18;6.32;;;23.80;27.60;;;;;;4892447;29;20042;-95
2021/04/08 10:19:38;;;;;;;9.15;5.47;;;23.80;27.60;;;;;;4915650;29;20035;-91
2021/04/08 10:22:05;;;;;;;8.73;4.82;;;23.70;28.00;;;;;;4916017;29;20059;-92
2021/04/08 10:24:43;;;;;;;6.80;5.43;;;23.80;28.00;;;;;;4917526;28;20397;-90
2021/04/08 10:27:19;;;;;;;13.23;4.57;;;23.80;27.80;;;;;;4908927;28;20042;-91
2021/04/08 10:29:47;;;;;;;3.60;3.28;;;23.40;28.20;;;;;;4918691;28;20030;-93
2021/04/08 10:32:31;;;;;;;8.85;6.00;;;22.90;29.10;;;;;;4921407;28;20111;-92
2021/04/08 10:34:57;;;;;;;14.45;6.38;;;22.40;30.00;;;;;;4921451;28;20443;-94
2021/04/08 10:37:24;;;;;;;4.13;3.70;;;21.90;30.90;;;;;;4922847;28;20078;-96
2021/04/08 10:39:52;;;;;;;9.88;6.88;;;21.70;31.30;;;;;;4931059;28;20118;-96
2021/04/08 10:42:20;;;;;;;9.95;5.78;;;21.20;31.80;;;;;;4910497;28;20042;-94
2021/04/08 10:44:50;;;;;;;5.47;4.70;;;20.90;32.90;;;;;;4924573;28;20038;-92
2021/04/08 10:47:26;;;;;;;5.35;4.85;;;20.60;33.70;;;;;;4889826;28;20042;-92
2021/04/08 10:49:58;;;;;;;13.70;5.88;;;20.20;34.20;;;;;;4908444;28;20523;-94
2021/04/08 10:52:37;;;;;;;10.05;4.43;;;20.00;35.20;;;;;;4907666;28;20042;-91
2021/04/08 10:55:12;;;;;;;9.88;7.07;;;19.80;35.90;;;;;;4936555;28;20022;-93
2021/04/08 10:57:42;;;;;;;10.10;4.93;;;19.60;36.60;;;;;;4917688;28;20198;-95
2021/04/08 11:00:11;;;;;;;6.22;4.50;;;19.50;37.00;;;;;;4910006;28;20300;-94
2021/04/08 11:02:48;;;;;;;10.13;6.00;;;19.30;37.60;;;;;;4917222;28;20074;-93
2021/04/08 11:05:21;;;;;;;8.43;6.10;;;19.00;38.30;;;;;;5085657;24;20104;-95
2021/04/08 11:07:51;;;;;;;7.45;4.68;;;18.90;38.90;;;;;;4930750;28;20072;-96
2021/04/08 11:10:25;;;;;;;10.77;7.00;;;18.90;39.10;;;;;;4930599;28;20069;-94
2021/04/08 11:12:52;;;;;;;5.25;4.63;;;18.90;39.30;;;;;;4916151;28;20046;-93
2021/04/08 11:15:24;;;;;;;5.18;4.43;;;18.90;39.40;;;;;;4929095;28;20057;-93
2021/04/08 11:17:53;;;;;;;7.25;4.95;;;19.00;39.40;;;;;;4935307;28;20109;-92
2021/04/08 11:20:31;;;;;;;7.07;6.20;;;19.00;39.50;;;;;;4937518;28;20059;-93
2021/04/08 11:22:58;;;;;;;10.77;6.68;;;19.00;39.60;;;;;;4924818;28;20038;-92
2021/04/08 11:25:26;;;;;;;4.80;4.03;;;19.00;39.80;;;;;;4955724;28;20022;-94
2021/04/08 11:27:55;;;;;;;15.30;8.02;;;18.90;39.90;;;;;;4939620;28;20026;-92
2021/04/08 11:30:26;;;;;;;7.03;4.72;;;19.00;40.00;;;;;;4921970;28;20049;-93
2021/04/08 11:32:54;;;;;;;16.58;7.38;;;19.00;39.90;;;;;;4934870;28;20053;-93
2021/04/08 11:35:38;;;;;;;11.75;5.45;;;19.00;40.10;;;;;;5000538;23;20121;-93
2021/04/08 11:38:17;;;;;;;16.35;7.03;;;19.10;40.00;;;;;;4896321;29;20023;-93
2021/04/08 11:41:02;;;;;;;24.10;8.25;;;19.10;39.90;;;;;;5017467;23;20064;-94
2021/04/08 11:43:40;;;;;;;7.97;5.93;;;19.30;40.00;;;;;;4990711;28;20041;-92
2021/04/08 11:46:29;;;;;;;16.10;7.07;;;19.30;39.50;;;;;;4982525;28;20029;-92
2021/04/08 11:49:00;;;;;;;9.48;5.75;;;19.10;39.80;;;;;;4983925;28;20039;-93
2021/04/08 11:51:31;;;;;;;12.63;7.47;;;19.10;40.20;;;;;;5003330;23;20083;-91
2021/04/08 11:56:38;;;;;;;8.23;6.20;;;19.00;40.60;;;;;;5007244;23;20045;-93
2021/04/08 12:02:31;;;;;;;6.43;4.43;;;19.10;40.60;;;;;;5329079;23;20025;31
2021/04/08 12:05:00;;;;;;;7.03;4.05;;;19.20;40.40;;;;;;4961143;23;20038;-91
2021/04/08 12:07:29;;;;;;;12.82;6.20;;;19.00;40.50;;;;;;4973588;28;20030;-94
2021/04/08 12:09:56;;;;;;;13.90;6.53;;;18.90;40.90;;;;;;4920087;28;20038;-93
2021/04/08 12:12:32;;;;;;;6.50;3.25;;;18.80;41.30;;;;;;4952528;28;20046;-93
2021/04/08 12:15:04;;;;;;;5.90;4.20;;;18.70;41.60;;;;;;4938801;28;20039;-91
2021/04/08 12:17:32;;;;;;;9.63;5.57;;;18.70;41.80;;;;;;5213625;23;20035;-93
2021/04/08 12:20:19;;;;;;;11.23;6.22;;;18.70;42.00;;;;;;4951015;28;20053;-93
2021/04/08 12:22:45;;;;;;;11.00;6.20;;;18.80;41.70;;;;;;4921315;28;20044;-91
2021/04/08 12:25:17;;;;;;;10.98;6.30;;;19.00;41.40;;;;;;4936839;28;20049;-91
2021/04/08 12:27:45;;;;;;;2.72;2.53;;;19.30;41.00;;;;;;4948972;28;20041;-93
2021/04/08 12:30:16;;;;;;;17.77;7.10;;;19.40;40.50;;;;;;4907422;28;20075;-92
2021/04/08 12:32:43;;;;;;;9.88;6.07;;;19.50;40.30;;;;;;4923036;28;20039;-93
2021/04/08 12:35:11;;;;;;;8.93;5.50;;;19.50;40.30;;;;;;4925140;28;20050;-93
2021/04/08 12:37:37;;;;;;;25.20;7.70;;;19.40;40.20;;;;;;4911028;28;20045;-93
2021/04/08 12:40:06;;;;;;;;;;;19.30;40.60;;;;;;4915557;29;20070;-91
2021/04/08 12:42:33;;;;;;;11.90;6.07;;;19.30;40.90;;;;;;4911321;28;20000;-94
2021/04/08 12:45:00;;;;;;;9.43;6.70;;;19.20;40.90;;;;;;4926777;28;20083;-93
2021/04/08 12:47:26;;;;;;;3.92;3.28;;;19.20;41.10;;;;;;4908380;28;20123;-93
2021/04/08 12:49:53;;;;;;;7.38;4.40;;;19.10;41.20;;;;;;4896350;28;20104;-93
2021/04/08 12:52:19;;;;;;;13.20;6.90;;;19.10;41.30;;;;;;4901145;29;20027;-92
2021/04/08 12:54:46;;;;;;;7.18;4.80;;;19.00;41.50;;;;;;4887795;29;20619;-89
2021/04/08 12:57:12;;;;;;;10.55;6.43;;;18.90;42.00;;;;;;4882940;29;20023;-91
2021/04/08 12:59:39;;;;;;;15.73;5.95;;;18.90;42.00;;;;;;4882201;29;20038;-92
2021/04/08 13:02:08;;;;;;;9.68;5.88;;;18.90;42.00;;;;;;4898651;29;20106;-94
2021/04/08 13:04:36;;;;;;;16.10;6.30;;;18.80;42.00;;;;;;4893121;29;20119;-95
2021/04/08 13:07:04;;;;;;;10.70;6.45;;;18.80;42.30;;;;;;4880512;29;20095;-94
2021/04/08 13:09:30;;;;;;;4.85;3.55;;;18.90;42.30;;;;;;4885787;29;20031;-92
2021/04/08 13:11:58;;;;;;;19.23;6.70;;;18.90;42.50;;;;;;4880257;29;20122;-93
2021/04/08 13:14:24;;;;;;;14.45;6.47;;;18.90;42.70;;;;;;4931552;23;20054;-94
2021/04/08 13:16:53;;;;;;;12.38;6.25;;;18.90;42.40;;;;;;5080276;23;20106;-95
2021/04/08 13:19:42;;;;;;;9.65;6.38;;;19.00;42.30;;;;;;5334141;23;20045;-94
2021/04/08 13:22:09;;;;;;;8.10;5.30;;;19.20;42.20;;;;;;5477923;23;20126;-94
2021/04/08 13:24:37;;;;;;;16.17;6.78;;;19.30;41.90;;;;;;4926342;23;20052;-95
2021/04/08 13:27:08;;;;;;;12.60;5.75;;;19.30;41.80;;;;;;4931884;23;20038;-95
2021/04/08 13:29:35;;;;;;;10.15;6.00;;;19.30;41.50;;;;;;4947033;28;20067;-94
2021/04/08 13:32:04;;;;;;;11.38;5.97;;;19.30;41.80;;;;;;4930664;28;20053;-95
2021/04/08 13:34:33;;;;;;;6.15;4.13;;;19.20;42.00;;;;;;4931689;28;20104;-96
2021/04/08 13:37:01;;;;;;;5.25;4.75;;;19.20;42.10;;;;;;4947707;28;20046;-95
2021/04/08 13:39:31;;;;;;;10.80;4.82;;;19.20;42.10;;;;;;4946660;28;20042;-96
2021/04/08 13:41:58;;;;;;;8.98;4.80;;;19.20;42.00;;;;;;4949583;23;20055;-91
2021/04/08 13:44:25;;;;;;;15.00;6.15;;;19.30;42.20;;;;;;4880505;29;20050;-95
2021/04/08 13:46:53;;;;;;;15.30;5.88;;;19.20;42.20;;;;;;4895522;29;20035;-96
2021/04/08 13:52:12;;;;;;;12.55;6.05;;;19.20;42.20;;;;;;5014842;23;20041;-95
2021/04/08 13:54:39;;;;;;;9.40;6.20;;;19.20;42.20;;;;;;4934286;28;20038;-91
2021/04/08 13:57:06;;;;;;;10.90;6.00;;;19.20;42.20;;;;;;4931860;28;20034;-95
2021/04/08 13:59:33;;;;;;;12.30;5.50;;;19.20;42.20;;;;;;4968431;28;20034;-95
2021/04/08 14:02:01;;;;;;;;;;;19.20;42.20;;;;;;4996090;23;20163;-95
2021/04/08 14:04:29;;;;;;;8.98;5.57;;;19.30;42.30;;;;;;4961647;28;19932;-95
2021/04/08 14:07:39;;;;;;;10.15;5.95;;;19.20;42.10;;;;;;5664421;23;20231;31
2021/04/08 14:10:08;;;;;;;12.13;6.00;;;19.10;42.20;;;;;;4928190;28;20051;-93
2021/04/08 14:12:34;;;;;;;11.65;6.25;;;19.00;42.40;;;;;;5015501;23;20121;-96
2021/04/08 14:15:03;;;;;;;;;;;19.00;42.60;;;;;;5175093;23;20065;-96
2021/04/08 14:17:30;;;;;;;11.50;6.00;;;19.00;42.90;;;;;;5096071;23;20116;-95
2021/04/08 14:20:10;;;;;;;11.32;5.95;;;19.00;42.80;;;;;;5504211;23;20030;-96
2021/04/08 14:25:22;;;;;;;16.42;6.43;;;19.00;42.70;;;;;;4947107;28;20042;-94
2021/04/08 14:28:21;;;;;;;14.27;6.85;;;19.00;42.70;;;;;;5107905;23;20035;-93
2021/04/08 14:30:48;;;;;;;8.05;5.95;;;19.00;42.80;;;;;;4921080;28;20026;-95
2021/04/08 14:33:16;;;;;;;8.07;5.30;;;19.00;42.90;;;;;;4936883;28;20062;-93
2021/04/08 14:35:43;;;;;;;9.32;5.97;;;19.00;43.00;;;;;;5129742;23;20051;-91
2021/04/08 14:38:11;;;;;;;10.20;6.07;;;19.00;43.00;;;;;;5266904;23;20125;-89
2021/04/08 14:40:40;;;;;;;12.57;6.72;;;18.90;43.10;;;;;;4934920;28;20034;-92
2021/04/08 14:43:07;;;;;;;11.43;6.25;;;18.90;43.40;;;;;;5146045;23;20822;-92
2021/04/08 14:45:34;;;;;;;13.90;6.30;;;18.90;43.60;;;;;;4968774;23;20054;-90
2021/04/08 14:48:01;;;;;;;;;;;18.90;43.70;;;;;;4939972;28;20041;-95
2021/04/08 14:50:27;;;;;;;;;;;18.90;43.90;;;;;;4936076;28;19926;-91
2021/04/08 14:55:58;;;;;;;8.80;6.00;;;18.80;43.80;;;;;;4959335;28;19957;-89
2021/04/08 14:58:32;;;;;;;10.45;6.30;;;18.80;43.90;;;;;;4920547;28;20049;-94
2021/04/08 15:01:12;;;;;;;15.07;6.65;;;18.70;44.20;;;;;;5085570;23;20039;-92
2021/04/08 15:03:40;;;;;;;10.38;6.60;;;18.70;44.50;;;;;;4951129;23;20053;-94
2021/04/08 15:06:24;;;;;;;14.43;6.93;;;18.60;44.50;;;;;;4876541;28;20039;-92
2021/04/08 15:09:10;;;;;;;12.55;6.25;;;18.60;44.60;;;;;;4940967;28;20058;-93
2021/04/08 15:11:54;;;;;;;19.08;7.20;;;18.60;44.60;;;;;;4906330;28;20038;-95
2021/04/08 15:17:53;;;;;;;9.40;5.78;;;18.60;44.80;;;;;;5886994;23;20017;-95
2021/04/08 15:30:22;;;;;;;15.35;6.30;;;18.40;45.50;;;;;;4973815;28;20189;-90
2021/04/08 15:33:38;;;;;;;9.63;6.20;;;18.20;45.70;;;;;;4941718;28;20050;-94
2021/04/08 15:36:33;;;;;;;8.95;6.32;;;18.20;46.00;;;;;;4947034;28;20454;-94